Time;durP1;ratioP1;P1;durP2;ratioP2;P2;SDS_P1;SDS_P2;PMS_P1;PMS_P2;Temp;Humidity;BMP_temperature;BMP_pressure;BME280_temperature;BME280_humidity;BME280_pressure;Samples;Min_cycle;Max_cycle;Signal;HPM_P1;HPM_P2
2023/10/31 00:02:12;;;;;;;;;;;12.90;93.00;;;;;;5106023;27;20241;-70
2023/10/31 00:04:56;;;;;;;;;;;12.90;93.00;;;;;;5103814;28;19994;-72
2023/10/31 00:07:31;;;;;;;;;;;12.90;93.00;;;;;;5103042;28;20392;-70
2023/10/31 00:10:05;;;;;;;;;;;12.90;92.90;;;;;;5104362;28;20379;-69
2023/10/31 00:12:41;;;;;;;;;;;12.90;92.90;;;;;;5104793;27;20394;-69
2023/10/31 00:15:15;;;;;;;;;;;12.90;92.80;;;;;;5103064;28;20451;-68
2023/10/31 00:17:49;;;;;;;;;;;12.90;92.80;;;;;;5096365;27;19981;-70
2023/10/31 00:20:22;;;;;;;;;;;12.90;92.70;;;;;;5104493;27;20375;-69
2023/10/31 00:22:56;;;;;;;;;;;12.80;92.70;;;;;;5112299;27;20339;-68
2023/10/31 00:25:30;;;;;;;;;;;12.80;92.70;;;;;;5101393;28;19925;-69
2023/10/31 00:28:03;;;;;;;;;;;12.80;92.60;;;;;;5099733;28;20393;-68
2023/10/31 00:30:37;;;;;;;;;;;12.80;92.60;;;;;;5100390;28;19969;-68
2023/10/31 00:33:10;;;;;;;;;;;12.80;92.60;;;;;;5085225;28;20386;-69
2023/10/31 00:35:43;;;;;;;;;;;12.80;92.60;;;;;;5101993;27;19939;-69
2023/10/31 00:38:22;;;;;;;;;;;12.80;92.60;;;;;;5099490;28;19932;-69
2023/10/31 00:40:56;;;;;;;;;;;12.80;92.60;;;;;;5100722;28;20376;-69
2023/10/31 00:43:33;;;;;;;;;;;12.70;92.70;;;;;;5115809;27;19931;-68
2023/10/31 00:46:07;;;;;;;;;;;12.80;92.60;;;;;;5094654;28;19928;-68
2023/10/31 00:48:41;;;;;;;;;;;12.80;92.60;;;;;;5098755;28;19973;-69
2023/10/31 00:51:14;;;;;;;;;;;12.70;92.60;;;;;;5103112;27;19934;-69
2023/10/31 00:53:47;;;;;;;;;;;12.80;92.60;;;;;;5086257;28;19924;-69
2023/10/31 00:56:20;;;;;;;;;;;12.70;92.60;;;;;;5105420;27;20371;-69
2023/10/31 00:58:53;;;;;;;;;;;12.70;92.60;;;;;;5099714;28;19923;-70
2023/10/31 01:01:27;;;;;;;;;;;12.70;92.50;;;;;;5101588;28;19950;-69
2023/10/31 01:04:01;;;;;;;;;;;12.70;92.50;;;;;;5098800;28;19924;-70
2023/10/31 01:06:35;;;;;;;;;;;12.70;92.50;;;;;;5097643;28;19931;-70
2023/10/31 01:09:08;;;;;;;;;;;12.70;92.60;;;;;;5098851;28;19969;-68
2023/10/31 01:11:41;;;;;;;;;;;12.70;92.50;;;;;;5101657;28;19928;-69
2023/10/31 01:14:14;;;;;;;;;;;12.70;92.40;;;;;;5102041;28;19924;-69
2023/10/31 01:16:48;;;;;;;;;;;12.70;92.40;;;;;;5101232;28;19934;-63
2023/10/31 01:19:22;;;;;;;;;;;12.70;92.40;;;;;;5102171;27;20355;-64
2023/10/31 01:21:55;;;;;;;;;;;12.70;92.40;;;;;;5100154;28;19935;-63
2023/10/31 01:24:29;;;;;;;;;;;12.60;92.40;;;;;;5098950;28;19971;-64
2023/10/31 01:27:02;;;;;;;;;;;12.70;92.40;;;;;;5109405;27;20032;-64
2023/10/31 01:29:35;;;;;;;;;;;12.70;92.30;;;;;;5089111;28;20043;-65
2023/10/31 01:32:09;;;;;;;;;;;12.70;92.20;;;;;;5099200;28;19955;-64
2023/10/31 01:34:43;;;;;;;;;;;12.70;92.10;;;;;;5097946;28;19928;-65
2023/10/31 01:37:19;;;;;;;;;;;12.70;92.10;;;;;;5098925;28;19934;-65
2023/10/31 01:39:52;;;;;;;;;;;12.70;92.00;;;;;;5102232;27;19934;-65
2023/10/31 01:42:25;;;;;;;;;;;12.70;91.90;;;;;;5101646;28;19928;-65
2023/10/31 01:44:58;;;;;;;;;;;12.70;91.80;;;;;;5096666;28;19932;-65
2023/10/31 01:47:38;;;;;;;;;;;12.60;91.80;;;;;;5091200;28;19928;-65
2023/10/31 01:50:12;;;;;;;;;;;12.60;91.60;;;;;;5108993;27;20283;-66
2023/10/31 01:52:46;;;;;;;;;;;12.60;91.70;;;;;;5092826;28;20014;-64
2023/10/31 01:55:27;;;;;;;;;;;12.60;91.40;;;;;;5100552;28;19924;-65
2023/10/31 01:58:00;;;;;;;;;;;12.60;91.40;;;;;;5083909;28;19924;-63
2023/10/31 02:00:41;;;;;;;;;;;12.60;91.30;;;;;;5099227;28;19988;-64
2023/10/31 02:03:15;;;;;;;;;;;12.60;91.30;;;;;;5101734;28;19927;-65
2023/10/31 02:05:51;;;;;;;;;;;12.60;91.10;;;;;;5085275;28;19934;-65
2023/10/31 02:08:28;;;;;;;;;;;12.60;91.10;;;;;;5098420;28;19931;-64
2023/10/31 02:11:03;;;;;;;;;;;12.60;91.00;;;;;;5096557;28;19981;-64
2023/10/31 02:13:37;;;;;;;;;;;12.60;91.00;;;;;;5096606;28;19970;-66
2023/10/31 02:16:14;;;;;;;;;;;12.60;91.10;;;;;;5081840;27;19928;-63
2023/10/31 02:18:57;;;;;;;;;;;12.60;91.00;;;;;;5101149;28;19931;-63
2023/10/31 02:21:30;;;;;;;;;;;12.60;90.90;;;;;;5099120;28;20007;-64
2023/10/31 02:24:06;;;;;;;;;;;12.60;91.10;;;;;;5101569;28;19928;-65
2023/10/31 02:26:40;;;;;;;;;;;12.60;90.70;;;;;;5098245;28;19932;-64
2023/10/31 02:29:17;;;;;;;;;;;12.60;90.90;;;;;;5073760;28;20010;-66
2023/10/31 02:31:56;;;;;;;;;;;12.60;90.70;;;;;;5096912;28;19931;-65
2023/10/31 02:34:39;;;;;;;;;;;12.60;90.70;;;;;;5092432;27;19990;-64
2023/10/31 02:37:19;;;;;;;;;;;12.50;90.70;;;;;;5081089;27;19923;-64
2023/10/31 02:39:59;;;;;;;;;;;12.50;90.80;;;;;;5107829;27;19927;-64
2023/10/31 02:42:45;;;;;;;;;;;12.50;90.80;;;;;;5098269;28;19931;-65
2023/10/31 02:45:18;;;;;;;;;;;12.50;90.70;;;;;;5082542;28;19934;-63
2023/10/31 02:47:52;;;;;;;;;;;12.50;90.90;;;;;;5097369;28;19993;-65
2023/10/31 02:50:25;;;;;;;;;;;12.50;90.70;;;;;;5093201;28;19977;-64
2023/10/31 02:52:58;;;;;;;;;;;12.50;90.70;;;;;;5085566;28;19924;-63
2023/10/31 02:55:32;;;;;;;;;;;12.50;90.60;;;;;;5082889;28;20503;-65
2023/10/31 02:58:06;;;;;;;;;;;12.50;90.40;;;;;;5082228;28;19932;-65
2023/10/31 03:00:39;;;;;;;;;;;12.50;90.40;;;;;;5086298;28;21547;-66
2023/10/31 03:03:12;;;;;;;;;;;12.50;90.40;;;;;;5095444;28;19963;-65
2023/10/31 03:05:45;;;;;;;;;;;12.50;90.40;;;;;;5097319;28;19924;-66
2023/10/31 03:08:20;;;;;;;;;;;12.50;90.20;;;;;;5089124;28;20381;-63
2023/10/31 03:10:54;;;;;;;;;;;12.50;90.20;;;;;;5087653;28;19928;-65
2023/10/31 03:13:21;;;;;;;;;;;12.60;90.30;;;;;;5091449;28;20370;-64
2023/10/31 03:15:54;;;;;;;;;;;12.50;90.00;;;;;;5091734;28;19924;-64
2023/10/31 03:18:27;;;;;;;;;;;12.50;89.70;;;;;;5093868;28;20005;-65
2023/10/31 03:21:00;;;;;;;;;;;12.30;89.70;;;;;;5097617;28;19959;-65
2023/10/31 03:23:34;;;;;;;;;;;12.30;89.80;;;;;;5093718;28;19924;-65
2023/10/31 03:26:08;;;;;;;;;;;12.30;90.00;;;;;;5091856;28;19939;-65
2023/10/31 03:28:41;;;;;;;;;;;12.20;90.10;;;;;;5100007;28;19935;-64
2023/10/31 03:31:14;;;;;;;;;;;12.20;89.80;;;;;;5095000;28;19928;-64
2023/10/31 03:33:49;;;;;;;;;;;12.10;89.90;;;;;;5082425;28;20416;-64
2023/10/31 03:36:22;;;;;;;;;;;12.10;89.90;;;;;;5094657;28;19928;-64
2023/10/31 03:38:55;;;;;;;;;;;12.10;90.10;;;;;;5099703;28;19931;-64
2023/10/31 03:41:29;;;;;;;;;;;12.10;89.90;;;;;;5093327;28;19927;-65
2023/10/31 03:44:03;;;;;;;;;;;12.10;90.00;;;;;;5091732;28;19924;-66
2023/10/31 03:46:36;;;;;;;;;;;12.00;89.80;;;;;;5093781;28;19924;-65
2023/10/31 03:49:09;;;;;;;;;;;12.00;89.90;;;;;;5096222;28;19932;-65
2023/10/31 03:51:42;;;;;;;;;;;12.10;89.60;;;;;;5092738;28;19928;-65
2023/10/31 03:54:16;;;;;;;;;;;12.00;89.60;;;;;;5100503;28;20386;-64
2023/10/31 03:56:58;;;;;;;;;;;12.00;89.60;;;;;;5098878;28;19934;-66
2023/10/31 03:59:31;;;;;;;;;;;12.00;89.40;;;;;;5099196;28;19924;-64
2023/10/31 04:02:07;;;;;;;;;;;12.00;89.40;;;;;;5100411;28;20497;-64
2023/10/31 04:04:40;;;;;;;;;;;11.90;89.40;;;;;;5100258;28;20633;-64
2023/10/31 04:07:13;;;;;;;;;;;12.00;89.30;;;;;;5103203;27;20022;-65
2023/10/31 04:09:46;;;;;;;;;;;12.00;89.40;;;;;;5102697;28;20006;-64
2023/10/31 04:12:23;;;;;;;;;;;11.90;89.30;;;;;;5099928;28;19924;-65
2023/10/31 04:14:56;;;;;;;;;;;11.90;89.30;;;;;;5100753;27;20650;-63
2023/10/31 04:17:29;;;;;;;;;;;11.90;89.30;;;;;;5098477;28;19935;-64
2023/10/31 04:20:03;;;;;;;;;;;11.80;89.20;;;;;;5100396;28;19970;-64
2023/10/31 04:22:42;;;;;;;;;;;11.80;89.30;;;;;;5097076;28;19924;-64
2023/10/31 04:25:15;;;;;;;;;;;11.80;89.30;;;;;;5102356;28;19928;-65
2023/10/31 04:27:49;;;;;;;;;;;11.80;89.30;;;;;;5103835;28;19973;-64
2023/10/31 04:30:23;;;;;;;;;;;11.90;89.40;;;;;;5096803;28;20006;-64
2023/10/31 04:32:56;;;;;;;;;;;11.80;89.30;;;;;;5095964;28;20927;-65
2023/10/31 04:35:29;;;;;;;;;;;11.90;89.40;;;;;;5099964;28;19970;-64
2023/10/31 04:38:02;;;;;;;;;;;11.80;89.30;;;;;;5094409;28;20435;-64
2023/10/31 04:40:35;;;;;;;;;;;11.80;89.40;;;;;;5109956;27;20020;-64
2023/10/31 04:43:16;;;;;;;;;;;11.70;89.50;;;;;;5101685;28;19947;-66
2023/10/31 04:45:49;;;;;;;;;;;11.70;89.50;;;;;;5102202;28;19932;-64
2023/10/31 04:48:22;;;;;;;;;;;11.70;89.40;;;;;;5090756;28;19973;-60
2023/10/31 04:50:56;;;;;;;;;;;11.80;89.20;;;;;;5109430;27;19924;-60
2023/10/31 04:53:32;;;;;;;;;;;11.70;89.20;;;;;;5092174;28;20026;-60
2023/10/31 04:56:05;;;;;;;;;;;11.80;89.20;;;;;;5083504;28;19932;-59
2023/10/31 04:58:43;;;;;;;;;;;11.80;89.30;;;;;;5081536;28;19934;-61
2023/10/31 05:01:17;;;;;;;;;;;11.70;89.40;;;;;;5096689;28;19986;-60
2023/10/31 05:03:56;;;;;;;;;;;11.70;89.50;;;;;;5097486;28;19958;-61
2023/10/31 05:06:29;;;;;;;;;;;11.70;89.50;;;;;;5093388;28;20268;-60
2023/10/31 05:09:04;;;;;;;;;;;11.70;89.50;;;;;;5092108;28;20010;-59
2023/10/31 05:11:38;;;;;;;;;;;11.70;89.40;;;;;;5097081;28;19923;-61
2023/10/31 05:14:14;;;;;;;;;;;11.70;89.50;;;;;;5092429;28;20559;-60
2023/10/31 05:16:48;;;;;;;;;;;11.70;89.60;;;;;;5091601;28;19931;-60
2023/10/31 05:19:22;;;;;;;;;;;11.70;89.60;;;;;;5099390;28;19931;-61
2023/10/31 05:21:55;;;;;;;;;;;11.60;89.60;;;;;;5111315;27;20433;-62
2023/10/31 05:24:28;;;;;;;;;;;11.60;89.60;;;;;;5098886;28;20014;-60
2023/10/31 05:27:01;;;;;;;;;;;11.60;89.70;;;;;;5097558;28;19930;-60
2023/10/31 05:29:37;;;;;;;;;;;11.60;89.80;;;;;;5105511;27;20023;-59
2023/10/31 05:32:13;;;;;;;;;;;11.60;89.70;;;;;;5099327;27;19934;-60
2023/10/31 05:34:46;;;;;;;;;;;11.60;89.80;;;;;;5101227;28;19928;-63
2023/10/31 05:37:19;;;;;;;;;;;11.60;89.80;;;;;;5094324;28;19963;-60
2023/10/31 05:39:52;;;;;;;;;;;11.60;89.80;;;;;;5100686;28;19935;-60
2023/10/31 05:42:27;;;;;;;;;;;11.60;90.00;;;;;;5096477;28;19966;-60
2023/10/31 05:45:01;;;;;;;;;;;11.60;90.00;;;;;;5095167;27;19954;-60
2023/10/31 05:47:34;;;;;;;;;;;11.60;90.00;;;;;;5089866;28;19928;-59
2023/10/31 05:50:09;;;;;;;;;;;11.60;90.00;;;;;;5094339;28;20417;-60
2023/10/31 05:52:42;;;;;;;;;;;11.50;90.10;;;;;;5097920;27;20379;-60
2023/10/31 05:55:15;;;;;;;;;;;11.60;90.30;;;;;;5095400;28;20005;-59
2023/10/31 05:57:42;;;;;;;;;;;11.60;90.20;;;;;;5082205;28;20310;-65
2023/10/31 06:00:17;;;;;;;;;;;11.60;90.30;;;;;;5093020;28;19928;-65
2023/10/31 06:02:49;;;;;;;;;;;11.50;90.40;;;;;;5097393;28;20342;-65
2023/10/31 06:05:22;;;;;;;;;;;11.50;90.50;;;;;;5115240;27;20468;-64
2023/10/31 06:07:55;;;;;;;;;;;11.50;90.50;;;;;;5094337;28;19932;-64
2023/10/31 06:10:29;;;;;;;;;;;11.50;90.60;;;;;;5089947;28;19931;-65
2023/10/31 06:13:02;;;;;;;;;;;11.50;90.50;;;;;;5098455;28;20199;-64
2023/10/31 06:15:36;;;;;;;;;;;11.50;90.60;;;;;;5099664;28;19980;-64
2023/10/31 06:18:10;;;;;;;;;;;11.50;90.60;;;;;;5100407;28;20414;-64
2023/10/31 06:20:43;;;;;;;;;;;11.50;90.60;;;;;;5099248;28;19924;-64
2023/10/31 06:23:16;;;;;;;;;;;11.50;90.60;;;;;;5100924;28;20310;-64
2023/10/31 06:25:49;;;;;;;;;;;11.50;90.60;;;;;;5101413;28;19923;-64
2023/10/31 06:28:22;;;;;;;;;;;11.50;90.70;;;;;;5092638;28;20193;-64
2023/10/31 06:30:56;;;;;;;;;;;11.50;90.60;;;;;;5099773;28;19951;-64
2023/10/31 06:33:30;;;;;;;;;;;11.50;90.50;;;;;;5092544;28;19962;-63
2023/10/31 06:36:03;;;;;;;;;;;11.50;90.60;;;;;;5101065;28;19975;-65
2023/10/31 06:38:36;;;;;;;;;;;11.50;90.60;;;;;;5100970;28;19934;-63
2023/10/31 06:41:09;;;;;;;;;;;11.50;90.60;;;;;;5099068;28;19977;-65
2023/10/31 06:43:42;;;;;;;;;;;11.50;90.50;;;;;;5096968;28;20051;-64
2023/10/31 06:46:16;;;;;;;;;;;11.50;90.40;;;;;;5099639;27;19934;-64
2023/10/31 06:48:50;;;;;;;;;;;11.40;90.40;;;;;;5099489;28;20306;-64
2023/10/31 06:51:23;;;;;;;;;;;11.50;90.50;;;;;;5100377;28;20375;-63
2023/10/31 06:53:56;;;;;;;;;;;11.40;90.30;;;;;;5101686;28;19955;-64
2023/10/31 06:56:30;;;;;;;;;;;11.40;90.40;;;;;;5100659;28;19935;-64
2023/10/31 06:59:03;;;;;;;;;;;11.40;90.20;;;;;;5102275;28;19932;-63
2023/10/31 07:01:37;;;;;;;;;;;11.50;90.10;;;;;;5099347;28;19935;-64
2023/10/31 07:04:11;;;;;;;;;;;11.40;90.00;;;;;;5104930;28;19928;-63
2023/10/31 07:06:45;;;;;;;;;;;11.50;89.90;;;;;;5095057;28;20151;-66
2023/10/31 07:09:18;;;;;;;;;;;11.50;90.00;;;;;;5101542;28;19924;-66
2023/10/31 07:11:51;;;;;;;;;;;11.40;90.00;;;;;;5097573;28;19932;-67
2023/10/31 07:14:24;;;;;;;;;;;11.50;89.90;;;;;;5096627;28;20010;-66
2023/10/31 07:16:58;;;;;;;;;;;11.40;90.00;;;;;;5103369;28;20000;-66
2023/10/31 07:19:32;;;;;;;;;;;11.40;89.90;;;;;;5103345;28;19959;-66
2023/10/31 07:22:05;;;;;;;;;;;11.50;89.80;;;;;;5100423;28;19931;-66
2023/10/31 07:24:32;;;;;;;;;;;11.40;89.80;;;;;;5096250;28;19924;-67
2023/10/31 07:27:05;;;;;;;;;;;11.40;89.70;;;;;;5101622;28;19931;-66
2023/10/31 07:29:40;;;;;;;;;;;11.50;89.60;;;;;;5100981;28;19924;-67
2023/10/31 07:32:14;;;;;;;;;;;11.40;89.60;;;;;;5104292;28;19981;-66
2023/10/31 07:34:48;;;;;;;;;;;11.50;89.60;;;;;;5089257;28;19924;-66
2023/10/31 07:37:22;;;;;;;;;;;11.50;89.60;;;;;;5104842;27;20057;-66
2023/10/31 07:39:55;;;;;;;;;;;11.50;89.50;;;;;;5104920;28;19936;-68
2023/10/31 07:42:28;;;;;;;;;;;11.50;89.50;;;;;;5102983;28;19939;-66
2023/10/31 07:45:02;;;;;;;;;;;11.50;89.50;;;;;;5102756;28;20011;-67
2023/10/31 07:47:44;;;;;;;;;;;11.50;89.60;;;;;;5101121;28;20022;-65
2023/10/31 07:50:17;;;;;;;;;;;11.50;89.40;;;;;;5101289;28;19923;-65
2023/10/31 07:52:50;;;;;;;;;;;11.40;89.60;;;;;;5104602;28;19928;-65
2023/10/31 07:55:23;;;;;;;;;;;11.40;89.50;;;;;;5103938;28;19924;-66
2023/10/31 07:57:57;;;;;;;;;;;11.50;89.60;;;;;;5104630;27;19924;-66
2023/10/31 08:00:30;;;;;;;;;;;11.50;89.50;;;;;;5102070;28;19924;-65
2023/10/31 08:03:05;;;;;;;;;;;11.40;89.50;;;;;;5103185;28;19974;-67
2023/10/31 08:05:39;;;;;;;;;;;11.40;89.40;;;;;;5092173;28;19969;-66
2023/10/31 08:08:12;;;;;;;;;;;11.40;89.40;;;;;;5101779;28;20302;-66
2023/10/31 08:10:46;;;;;;;;;;;11.50;89.30;;;;;;5103720;28;19934;-65
2023/10/31 08:13:20;;;;;;;;;;;11.50;89.10;;;;;;5097661;28;19932;-66
2023/10/31 08:15:54;;;;;;;;;;;11.50;89.30;;;;;;5098566;28;19967;-65
2023/10/31 08:18:30;;;;;;;;;;;11.50;89.30;;;;;;5102996;28;19932;-68
2023/10/31 08:21:04;;;;;;;;;;;11.40;89.40;;;;;;5101632;28;19946;-69
2023/10/31 08:23:37;;;;;;;;;;;11.50;89.30;;;;;;5100165;28;19928;-69
2023/10/31 08:26:12;;;;;;;;;;;11.50;89.20;;;;;;5102514;28;19931;-71
2023/10/31 08:28:45;;;;;;;;;;;11.50;89.20;;;;;;5102153;28;19928;-70
2023/10/31 08:31:19;;;;;;;;;;;11.50;89.20;;;;;;5101799;28;19923;-71
2023/10/31 08:33:53;;;;;;;;;;;11.50;88.90;;;;;;5101210;27;19977;-69
2023/10/31 08:36:28;;;;;;;;;;;11.50;89.00;;;;;;5102424;28;19936;-73
2023/10/31 08:39:01;;;;;;;;;;;11.50;88.80;;;;;;5101563;28;19974;-70
2023/10/31 08:41:34;;;;;;;;;;;11.60;88.80;;;;;;5101145;28;20371;-71
2023/10/31 08:44:07;;;;;;;;;;;11.60;88.80;;;;;;5103412;28;19928;-65
2023/10/31 08:46:40;;;;;;;;;;;11.60;88.80;;;;;;5102531;28;19934;-64
2023/10/31 08:49:15;;;;;;;;;;;11.60;88.80;;;;;;5100594;28;19928;-65
2023/10/31 08:51:48;;;;;;;;;;;11.60;88.70;;;;;;5099305;28;20664;-65
2023/10/31 08:54:21;;;;;;;;;;;11.60;88.80;;;;;;5102032;28;19924;-65
2023/10/31 08:56:54;;;;;;;;;;;11.60;88.80;;;;;;5101987;28;19924;-64
2023/10/31 08:59:27;;;;;;;;;;;11.60;88.90;;;;;;5102502;28;19931;-64
2023/10/31 09:02:00;;;;;;;;;;;11.60;89.00;;;;;;5102638;28;20462;-64
2023/10/31 09:04:35;;;;;;;;;;;11.60;88.90;;;;;;5101224;28;19969;-64
2023/10/31 09:07:02;;;;;;;;;;;11.60;88.90;;;;;;5096333;27;19934;-64
2023/10/31 09:09:36;;;;;;;;;;;11.60;89.00;;;;;;5101869;28;19927;-65
2023/10/31 09:12:09;;;;;;;;;;;11.60;88.90;;;;;;5102104;28;19931;-64
2023/10/31 09:14:43;;;;;;;;;;;11.60;89.10;;;;;;5101172;28;19924;-64
2023/10/31 09:17:16;;;;;;;;;;;11.60;89.10;;;;;;5102634;28;19935;-64
2023/10/31 09:19:50;;;;;;;;;;;11.60;89.30;;;;;;5101671;28;20289;-64
2023/10/31 09:22:27;;;;;;;;;;;11.70;89.40;;;;;;5096554;28;19930;-65
2023/10/31 09:25:00;;;;;;;;;;;11.80;89.30;;;;;;5102908;27;19985;-65
2023/10/31 09:27:34;;;;;;;;;;;11.80;89.40;;;;;;5102581;28;20433;-69
2023/10/31 09:30:07;;;;;;;;;;;11.80;89.50;;;;;;5101936;28;19924;-69
2023/10/31 09:32:41;;;;;;;;;;;11.70;89.60;;;;;;5097189;28;19927;-69
2023/10/31 09:35:09;;;;;;;;;;;11.80;89.60;;;;;;5101527;28;19935;-69
2023/10/31 09:37:43;;;;;;;;;;;11.80;89.60;;;;;;5098763;28;19927;-69
2023/10/31 09:40:16;;;;;;;;;;;11.90;89.70;;;;;;5096588;27;19932;-69
2023/10/31 09:42:50;;;;;;;;;;;11.90;89.60;;;;;;5102507;28;19950;-69
2023/10/31 09:45:23;;;;;;;;;;;12.10;89.50;;;;;;5101542;28;19928;-69
2023/10/31 09:47:57;;;;;;;;;;;12.20;89.40;;;;;;5100128;28;20267;-69
2023/10/31 09:50:32;;;;;;;;;;;12.20;89.20;;;;;;5100578;28;19928;-69
2023/10/31 09:53:07;;;;;;;;;;;12.30;89.10;;;;;;5096264;28;20378;-69
2023/10/31 09:55:33;;;;;;;;;;;12.30;89.00;;;;;;5099621;27;19936;-69
2023/10/31 09:58:07;;;;;;;;;;;12.30;88.90;;;;;;5102160;28;19928;-69
2023/10/31 10:00:40;;;;;;;;;;;12.40;88.90;;;;;;5097311;28;19924;-69
2023/10/31 10:03:13;;;;;;;;;;;12.40;88.60;;;;;;5099276;28;19971;-68
2023/10/31 10:05:47;;;;;;;;;;;12.40;88.60;;;;;;5099213;28;19924;-68
2023/10/31 10:08:21;;;;;;;;;;;12.40;88.50;;;;;;5098626;28;19958;-68
2023/10/31 10:10:55;;;;;;;;;;;12.40;88.00;;;;;;5101848;28;19956;-68
2023/10/31 10:13:29;;;;;;;;;;;12.40;88.00;;;;;;5100486;28;20264;-68
2023/10/31 10:16:02;;;;;;;;;;;12.40;88.10;;;;;;5099865;28;19951;-69
2023/10/31 10:18:39;;;;;;;;;;;12.40;87.90;;;;;;5100426;27;19934;-68
2023/10/31 10:21:13;;;;;;;;;;;12.40;87.70;;;;;;5100348;28;19931;-67
2023/10/31 10:23:48;;;;;;;;;;;12.40;87.60;;;;;;5097568;28;19928;-69
2023/10/31 10:26:25;;;;;;;;;;;12.40;87.60;;;;;;5101482;28;20007;-68
2023/10/31 10:28:58;;;;;;;;;;;12.50;87.20;;;;;;5100433;28;20019;-69
2023/10/31 10:31:31;;;;;;;;;;;12.50;87.30;;;;;;5100754;28;20374;-69
2023/10/31 10:34:04;;;;;;;;;;;12.50;87.10;;;;;;5099306;28;19957;-69
2023/10/31 10:36:39;;;;;;;;;;;12.60;87.10;;;;;;5097546;28;19924;-64
2023/10/31 10:39:14;;;;;;;;;;;12.60;86.70;;;;;;5098722;28;19935;-66
2023/10/31 10:41:48;;;;;;;;;;;12.70;86.90;;;;;;5099769;28;19931;-64
2023/10/31 10:44:22;;;;;;;;;;;12.70;86.80;;;;;;5100067;27;19924;-65
2023/10/31 10:46:56;;;;;;;;;;;12.80;86.60;;;;;;5096564;28;21329;-65
2023/10/31 10:49:33;;;;;;;;;;;12.90;86.40;;;;;;5097170;28;20014;-64
2023/10/31 10:52:15;;;;;;;;;;;13.00;86.00;;;;;;5097688;28;19985;-63
2023/10/31 10:54:53;;;;;;;;;;;13.00;85.90;;;;;;5098115;28;20393;-63
2023/10/31 10:57:32;;;;;;;;;;;13.00;85.80;;;;;;5099350;28;19931;-65
2023/10/31 11:00:13;;;;;;;;;;;13.10;85.60;;;;;;5094677;28;20538;-65
2023/10/31 11:02:49;;;;;;;;;;;13.10;85.30;;;;;;5100160;28;20454;-64
2023/10/31 11:05:24;;;;;;;;;;;13.10;85.40;;;;;;5098822;28;20026;-64
2023/10/31 11:07:58;;;;;;;;;;;13.10;85.20;;;;;;5097845;28;20409;-64
2023/10/31 11:10:32;;;;;;;;;;;13.10;85.10;;;;;;5098040;28;20015;-64
2023/10/31 11:13:07;;;;;;;;;;;13.20;85.20;;;;;;5099614;28;20014;-64
2023/10/31 11:15:40;;;;;;;;;;;13.20;85.10;;;;;;5099725;28;19953;-64
2023/10/31 11:18:14;;;;;;;;;;;13.20;84.40;;;;;;5094424;28;20435;-66
2023/10/31 11:20:47;;;;;;;;;;;13.20;84.60;;;;;;5097599;28;19973;-64
2023/10/31 11:23:21;;;;;;;;;;;13.20;84.10;;;;;;5096602;28;20040;-64
2023/10/31 11:25:56;;;;;;;;;;;13.30;84.40;;;;;;5097173;28;19924;-66
2023/10/31 11:28:29;;;;;;;;;;;13.30;84.20;;;;;;5098862;28;19945;-64
2023/10/31 11:31:02;;;;;;;;;;;13.30;84.20;;;;;;5093356;28;19924;-64
2023/10/31 11:33:39;;;;;;;;;;;13.40;84.10;;;;;;5099431;28;19931;-64
2023/10/31 11:36:15;;;;;;;;;;;13.40;83.70;;;;;;5096639;28;20395;-66
2023/10/31 11:38:55;;;;;;;;;;;13.40;83.80;;;;;;5095659;28;19949;-64
2023/10/31 11:41:29;;;;;;;;;;;13.30;83.50;;;;;;5098166;28;19931;-65
2023/10/31 11:44:03;;;;;;;;;;;13.30;83.80;;;;;;5091279;28;19932;-64
2023/10/31 11:46:36;;;;;;;;;;;13.30;83.70;;;;;;5097121;28;19928;-71
2023/10/31 11:49:09;;;;;;;;;;;13.30;83.60;;;;;;5096211;28;19928;-72
2023/10/31 11:51:45;;;;;;;;;;;13.20;83.50;;;;;;5094353;28;20332;-71
2023/10/31 11:54:19;;;;;;;;;;;13.20;83.40;;;;;;5092282;28;19928;-71
2023/10/31 11:56:53;;;;;;;;;;;13.30;83.20;;;;;;5098494;28;19932;-71
2023/10/31 11:59:36;;;;;;;;;;;13.30;83.00;;;;;;5097211;28;20015;-73
2023/10/31 12:02:13;;;;;;;;;;;13.20;83.10;;;;;;5097210;27;19934;-72
2023/10/31 12:04:47;;;;;;;;;;;13.20;83.20;;;;;;5092781;28;19928;-71
2023/10/31 12:07:20;;;;;;;;;;;13.30;83.30;;;;;;5097329;28;20018;-72
2023/10/31 12:09:54;;;;;;;;;;;13.30;83.10;;;;;;5098308;28;20442;-72
2023/10/31 12:12:31;;;;;;;;;;;13.30;83.00;;;;;;5097739;28;19935;-71
2023/10/31 12:15:07;;;;;;;;;;;13.20;82.70;;;;;;5088254;27;19997;-72
2023/10/31 12:17:41;;;;;;;;;;;13.30;83.00;;;;;;5091740;28;19931;-72
2023/10/31 12:20:15;;;;;;;;;;;13.30;82.60;;;;;;5100848;28;19935;-70
2023/10/31 12:22:48;;;;;;;;;;;13.30;82.50;;;;;;5082023;28;20414;-71
2023/10/31 12:25:23;;;;;;;;;;;13.30;82.60;;;;;;5094500;27;19939;-72
2023/10/31 12:27:56;;;;;;;;;;;13.30;82.70;;;;;;5101938;28;19931;-72
2023/10/31 12:30:30;;;;;;;;;;;13.40;82.80;;;;;;5100631;27;19928;-71
2023/10/31 12:33:10;;;;;;;;;;;13.40;82.80;;;;;;5104408;28;19955;-73
2023/10/31 12:35:44;;;;;;;;;;;13.30;82.90;;;;;;5089388;28;19928;-71
2023/10/31 12:38:17;;;;;;;;;;;13.20;83.10;;;;;;5095282;28;19924;-72
2023/10/31 12:40:52;;;;;;;;;;;13.20;82.90;;;;;;5103064;28;19924;-71
2023/10/31 12:43:27;;;;;;;;;;;13.20;83.10;;;;;;5102652;28;20348;-71
2023/10/31 12:46:22;;;;;;;;;;;13.20;83.40;;;;;;5103893;28;19978;-71
2023/10/31 12:48:55;;;;;;;;;;;13.20;83.30;;;;;;5102161;28;19956;-71
2023/10/31 12:51:22;;;;;;;;;;;13.20;83.40;;;;;;5103125;28;19924;-71
2023/10/31 12:53:55;;;;;;;;;;;13.10;83.70;;;;;;5102836;28;20367;-71
2023/10/31 12:56:42;;;;;;;;;;;13.10;83.60;;;;;;5101617;28;19928;-70
2023/10/31 12:59:15;;;;;;;;;;;13.10;83.20;;;;;;5102521;28;19981;-69
2023/10/31 13:01:48;;;;;;;;;;;13.10;83.50;;;;;;5101643;28;19932;-68
2023/10/31 13:04:27;;;;;;;;;;;13.20;83.30;;;;;;5103045;28;19927;-69
2023/10/31 13:07:02;;;;;;;;;;;13.30;83.00;;;;;;5098980;28;19932;-69
2023/10/31 13:09:38;;;;;;;;;;;13.30;83.00;;;;;;5102088;28;20055;-68
2023/10/31 13:12:12;;;;;;;;;;;13.40;82.60;;;;;;5101779;28;19924;-69
2023/10/31 13:14:46;;;;;;;;;;;13.40;82.20;;;;;;5100707;28;19963;-69
2023/10/31 13:17:19;;;;;;;;;;;13.40;82.50;;;;;;5101146;28;20383;-70
2023/10/31 13:19:52;;;;;;;;;;;13.40;82.30;;;;;;5102201;28;19924;-70
2023/10/31 13:22:25;;;;;;;;;;;13.40;82.10;;;;;;5100238;28;19946;-69
2023/10/31 13:24:58;;;;;;;;;;;13.30;82.20;;;;;;5102274;28;19947;-71
2023/10/31 13:27:32;;;;;;;;;;;13.30;82.10;;;;;;5100269;28;19924;-70
2023/10/31 13:29:59;;;;;;;;;;;13.20;82.50;;;;;;5100640;28;19928;-69
2023/10/31 13:32:32;;;;;;;;;;;13.30;82.20;;;;;;5099778;28;19928;-70
2023/10/31 13:35:05;;;;;;;;;;;13.30;82.70;;;;;;5101619;28;19924;-70
2023/10/31 13:37:39;;;;;;;;;;;13.30;82.70;;;;;;5097693;28;19928;-70
2023/10/31 13:40:13;;;;;;;;;;;13.30;82.50;;;;;;5101061;28;20820;-69
2023/10/31 13:42:48;;;;;;;;;;;13.30;82.50;;;;;;5099127;28;19928;-71
2023/10/31 13:45:21;;;;;;;;;;;13.40;82.70;;;;;;5101325;28;19931;-71
2023/10/31 13:47:54;;;;;;;;;;;13.30;82.40;;;;;;5100916;28;19931;-69
2023/10/31 13:50:27;;;;;;;;;;;13.40;82.50;;;;;;5100287;28;20018;-70
2023/10/31 13:53:00;;;;;;;;;;;13.40;82.30;;;;;;5099251;28;19924;-69
2023/10/31 13:55:33;;;;;;;;;;;13.40;82.20;;;;;;5100294;28;20336;-70
2023/10/31 13:58:08;;;;;;;;;;;13.40;82.30;;;;;;5100275;28;20015;-70
2023/10/31 14:00:41;;;;;;;;;;;13.50;82.00;;;;;;5103013;28;19951;-71
2023/10/31 14:03:15;;;;;;;;;;;13.50;81.80;;;;;;5101194;28;19928;-69
2023/10/31 14:05:48;;;;;;;;;;;13.50;81.90;;;;;;5098895;28;20157;-70
2023/10/31 14:08:22;;;;;;;;;;;13.50;81.70;;;;;;5099866;28;19973;-70
2023/10/31 14:10:56;;;;;;;;;;;13.50;81.40;;;;;;5101065;28;20276;-70
2023/10/31 14:13:32;;;;;;;;;;;13.50;81.80;;;;;;5098974;28;19931;-70
2023/10/31 14:16:13;;;;;;;;;;;13.50;81.90;;;;;;5098470;28;20452;-69
2023/10/31 14:18:47;;;;;;;;;;;13.50;81.40;;;;;;5114206;27;19928;-70
2023/10/31 14:21:20;;;;;;;;;;;13.50;81.70;;;;;;5099896;28;19930;-71
2023/10/31 14:23:54;;;;;;;;;;;13.40;81.90;;;;;;5100352;28;19927;-70
2023/10/31 14:26:27;;;;;;;;;;;13.40;81.80;;;;;;5099109;28;19924;-70
2023/10/31 14:29:01;;;;;;;;;;;13.40;81.60;;;;;;5098339;28;20022;-70
2023/10/31 14:31:39;;;;;;;;;;;13.40;81.80;;;;;;5099548;28;19932;-70
2023/10/31 14:34:12;;;;;;;;;;;13.40;81.70;;;;;;5097938;28;19931;-70
2023/10/31 14:36:39;;;;;;;;;;;13.30;81.80;;;;;;5113636;27;20049;-70
2023/10/31 14:39:12;;;;;;;;;;;13.40;82.00;;;;;;5099305;28;20013;-70
2023/10/31 14:41:45;;;;;;;;;;;13.40;82.20;;;;;;5100552;28;19938;-70
2023/10/31 14:44:21;;;;;;;;;;;13.40;82.20;;;;;;5099415;28;19924;-70
2023/10/31 14:46:54;;;;;;;;;;;13.30;82.30;;;;;;5099373;28;19928;-71
2023/10/31 14:49:27;;;;;;;;;;;13.30;82.40;;;;;;5098602;28;20401;-69
2023/10/31 14:51:54;;;;;;;;;;;13.30;82.20;;;;;;5097615;28;19957;-69
2023/10/31 14:54:27;;;;;;;;;;;13.20;82.30;;;;;;5100573;28;19931;-70
2023/10/31 14:57:01;;;;;;;;;;;13.30;82.30;;;;;;5097289;28;19923;-70